Winter Beach, Florida
Current Conditions -  °F | °C
As of 6:18 AM on Wednesday 26 Nov 2014 (Local Time) from KVRB Reporting Station
Thunderstorm Thunderstorm  
Wind Chill: 71°   Ceiling: 4700
Heat Index: 71°   Visibility: 3mi
Dew Point: 69°   Wind: 7mph
Humidity: 93%   Direction: 210°SSW
Pressure: 29.94"   Gusts: NA
Location:  27.72°N, 80.42°W
Report Text: KVRB 261118Z AUTO 21006KT 3SM +TSRA BR SCT030 BKN047 OVC085 22/21 A2994 RMK AO2 RAB04 TSB07 P0024 T02170206
Loading
Personal Weather Stations






























Interactive Weather Map New forecast layout! Learn more

10-Day Weather Forecast

Advertisements
Track Severe Weather on mobile